sensor_id;sensor_type;location;lat;lon;timestamp;P1;durP1;ratioP1;P2;durP2;ratioP2
51664;SDS011;37751;52.408;12.536;2022-08-19T00:01:54;16.20;;;11.15;;
51664;SDS011;37751;52.408;12.536;2022-08-19T00:04:26;14.45;;;10.82;;
51664;SDS011;37751;52.408;12.536;2022-08-19T00:06:56;15.57;;;10.75;;
51664;SDS011;37751;52.408;12.536;2022-08-19T00:09:24;13.13;;;11.73;;
51664;SDS011;37751;52.408;12.536;2022-08-19T00:11:53;16.10;;;12.05;;
51664;SDS011;37751;52.408;12.536;2022-08-19T00:14:22;15.90;;;11.77;;
51664;SDS011;37751;52.408;12.536;2022-08-19T00:16:50;13.45;;;12.02;;
51664;SDS011;37751;52.408;12.536;2022-08-19T00:19:21;15.23;;;11.40;;
51664;SDS011;37751;52.408;12.536;2022-08-19T00:21:48;16.25;;;12.60;;
51664;SDS011;37751;52.408;12.536;2022-08-19T00:24:15;22.77;;;14.65;;
51664;SDS011;37751;52.408;12.536;2022-08-19T00:26:42;16.15;;;13.65;;
51664;SDS011;37751;52.408;12.536;2022-08-19T00:29:11;13.45;;;11.88;;
51664;SDS011;37751;52.408;12.536;2022-08-19T00:31:42;16.25;;;11.80;;
51664;SDS011;37751;52.408;12.536;2022-08-19T00:34:11;15.52;;;12.82;;
51664;SDS011;37751;52.408;12.536;2022-08-19T00:36:42;15.35;;;12.55;;
51664;SDS011;37751;52.408;12.536;2022-08-19T00:39:09;18.98;;;12.88;;
51664;SDS011;37751;52.408;12.536;2022-08-19T00:41:36;14.70;;;12.25;;
51664;SDS011;37751;52.408;12.536;2022-08-19T00:44:09;17.08;;;13.68;;
51664;SDS011;37751;52.408;12.536;2022-08-19T00:46:39;17.65;;;13.15;;
51664;SDS011;37751;52.408;12.536;2022-08-19T00:52:11;12.98;;;11.65;;
51664;SDS011;37751;52.408;12.536;2022-08-19T00:54:44;15.70;;;12.38;;
51664;SDS011;37751;52.408;12.536;2022-08-19T00:57:18;16.30;;;12.70;;
51664;SDS011;37751;52.408;12.536;2022-08-19T00:59:53;15.43;;;13.48;;
51664;SDS011;37751;52.408;12.536;2022-08-19T01:02:28;17.63;;;14.13;;
51664;SDS011;37751;52.408;12.536;2022-08-19T01:04:56;16.85;;;15.07;;
51664;SDS011;37751;52.408;12.536;2022-08-19T01:07:23;17.80;;;14.15;;
51664;SDS011;37751;52.408;12.536;2022-08-19T01:09:51;18.33;;;16.25;;
51664;SDS011;37751;52.408;12.536;2022-08-19T01:12:18;21.67;;;16.98;;
51664;SDS011;37751;52.408;12.536;2022-08-19T01:14:45;19.33;;;17.35;;
51664;SDS011;37751;52.408;12.536;2022-08-19T01:17:13;21.85;;;18.05;;
51664;SDS011;37751;52.408;12.536;2022-08-19T01:19:42;23.48;;;18.70;;
51664;SDS011;37751;52.408;12.536;2022-08-19T01:25:19;23.13;;;17.63;;
51664;SDS011;37751;52.408;12.536;2022-08-19T01:27:54;21.83;;;19.20;;
51664;SDS011;37751;52.408;12.536;2022-08-19T01:30:28;24.35;;;19.25;;
51664;SDS011;37751;52.408;12.536;2022-08-19T01:33:00;25.10;;;18.92;;
51664;SDS011;37751;52.408;12.536;2022-08-19T01:35:29;23.23;;;20.35;;
51664;SDS011;37751;52.408;12.536;2022-08-19T01:37:59;23.85;;;19.75;;
51664;SDS011;37751;52.408;12.536;2022-08-19T01:40:35;21.42;;;19.02;;
51664;SDS011;37751;52.408;12.536;2022-08-19T01:43:04;23.88;;;19.00;;
51664;SDS011;37751;52.408;12.536;2022-08-19T01:45:32;26.38;;;20.10;;
51664;SDS011;37751;52.408;12.536;2022-08-19T01:48:00;28.65;;;20.27;;
51664;SDS011;37751;52.408;12.536;2022-08-19T01:50:28;27.48;;;21.20;;
51664;SDS011;37751;52.408;12.536;2022-08-19T01:52:57;25.40;;;21.60;;
51664;SDS011;37751;52.408;12.536;2022-08-19T01:55:33;25.38;;;21.67;;
51664;SDS011;37751;52.408;12.536;2022-08-19T01:58:07;33.20;;;23.98;;
51664;SDS011;37751;52.408;12.536;2022-08-19T02:00:44;32.05;;;23.88;;
51664;SDS011;37751;52.408;12.536;2022-08-19T02:03:11;35.83;;;24.55;;
51664;SDS011;37751;52.408;12.536;2022-08-19T02:05:39;34.22;;;26.38;;
51664;SDS011;37751;52.408;12.536;2022-08-19T02:08:07;33.47;;;26.63;;
51664;SDS011;37751;52.408;12.536;2022-08-19T02:10:38;34.70;;;27.00;;
51664;SDS011;37751;52.408;12.536;2022-08-19T02:13:09;33.70;;;25.58;;
51664;SDS011;37751;52.408;12.536;2022-08-19T02:15:37;36.58;;;25.95;;
51664;SDS011;37751;52.408;12.536;2022-08-19T02:18:04;37.42;;;29.17;;
51664;SDS011;37751;52.408;12.536;2022-08-19T02:20:32;38.15;;;28.55;;
51664;SDS011;37751;52.408;12.536;2022-08-19T02:22:59;33.15;;;27.02;;
51664;SDS011;37751;52.408;12.536;2022-08-19T02:25:27;33.17;;;26.80;;
51664;SDS011;37751;52.408;12.536;2022-08-19T02:27:54;34.13;;;25.23;;
51664;SDS011;37751;52.408;12.536;2022-08-19T02:30:20;36.42;;;27.67;;
51664;SDS011;37751;52.408;12.536;2022-08-19T02:32:48;39.10;;;27.30;;
51664;SDS011;37751;52.408;12.536;2022-08-19T02:35:15;31.88;;;26.08;;
51664;SDS011;37751;52.408;12.536;2022-08-19T02:37:41;41.17;;;26.00;;
51664;SDS011;37751;52.408;12.536;2022-08-19T02:40:28;30.90;;;24.38;;
51664;SDS011;37751;52.408;12.536;2022-08-19T02:43:01;30.02;;;25.23;;
51664;SDS011;37751;52.408;12.536;2022-08-19T02:45:32;31.88;;;23.77;;
51664;SDS011;37751;52.408;12.536;2022-08-19T02:48:00;32.17;;;23.42;;
51664;SDS011;37751;52.408;12.536;2022-08-19T02:50:30;30.73;;;25.08;;
51664;SDS011;37751;52.408;12.536;2022-08-19T02:52:58;38.33;;;26.85;;
51664;SDS011;37751;52.408;12.536;2022-08-19T02:55:24;33.95;;;27.98;;
51664;SDS011;37751;52.408;12.536;2022-08-19T02:57:51;33.45;;;27.50;;
51664;SDS011;37751;52.408;12.536;2022-08-19T03:00:18;35.25;;;27.65;;
51664;SDS011;37751;52.408;12.536;2022-08-19T03:02:44;32.78;;;26.92;;
51664;SDS011;37751;52.408;12.536;2022-08-19T03:05:12;31.98;;;24.98;;
51664;SDS011;37751;52.408;12.536;2022-08-19T03:07:39;29.85;;;24.70;;
51664;SDS011;37751;52.408;12.536;2022-08-19T03:10:06;34.20;;;24.15;;
51664;SDS011;37751;52.408;12.536;2022-08-19T03:12:37;29.85;;;22.10;;
51664;SDS011;37751;52.408;12.536;2022-08-19T03:15:05;24.80;;;22.05;;
51664;SDS011;37751;52.408;12.536;2022-08-19T03:17:34;31.08;;;22.60;;
51664;SDS011;37751;52.408;12.536;2022-08-19T03:20:01;26.35;;;22.77;;
51664;SDS011;37751;52.408;12.536;2022-08-19T03:22:30;32.05;;;24.40;;
51664;SDS011;37751;52.408;12.536;2022-08-19T03:24:56;29.05;;;22.65;;
51664;SDS011;37751;52.408;12.536;2022-08-19T03:27:23;32.53;;;23.40;;
51664;SDS011;37751;52.408;12.536;2022-08-19T03:29:55;26.20;;;22.85;;
51664;SDS011;37751;52.408;12.536;2022-08-19T03:32:22;27.88;;;22.33;;
51664;SDS011;37751;52.408;12.536;2022-08-19T03:34:58;25.40;;;20.83;;
51664;SDS011;37751;52.408;12.536;2022-08-19T03:37:25;29.70;;;23.40;;
51664;SDS011;37751;52.408;12.536;2022-08-19T03:39:52;28.85;;;22.10;;
51664;SDS011;37751;52.408;12.536;2022-08-19T03:42:18;31.15;;;22.55;;
51664;SDS011;37751;52.408;12.536;2022-08-19T03:45:05;28.67;;;21.25;;
51664;SDS011;37751;52.408;12.536;2022-08-19T03:47:33;22.50;;;20.05;;
51664;SDS011;37751;52.408;12.536;2022-08-19T03:50:00;22.00;;;19.65;;
51664;SDS011;37751;52.408;12.536;2022-08-19T03:52:26;25.58;;;18.85;;
51664;SDS011;37751;52.408;12.536;2022-08-19T03:54:53;22.60;;;18.15;;
51664;SDS011;37751;52.408;12.536;2022-08-19T03:57:20;25.45;;;19.90;;
51664;SDS011;37751;52.408;12.536;2022-08-19T03:59:52;21.27;;;17.77;;
51664;SDS011;37751;52.408;12.536;2022-08-19T04:02:29;19.23;;;17.20;;
51664;SDS011;37751;52.408;12.536;2022-08-19T04:04:55;19.60;;;17.05;;
51664;SDS011;37751;52.408;12.536;2022-08-19T04:07:22;25.23;;;19.77;;
51664;SDS011;37751;52.408;12.536;2022-08-19T04:09:49;21.98;;;17.70;;
51664;SDS011;37751;52.408;12.536;2022-08-19T04:12:17;20.77;;;16.25;;
51664;SDS011;37751;52.408;12.536;2022-08-19T04:14:46;22.75;;;18.95;;
51664;SDS011;37751;52.408;12.536;2022-08-19T04:17:13;20.55;;;17.70;;
51664;SDS011;37751;52.408;12.536;2022-08-19T04:19:40;30.20;;;20.90;;
51664;SDS011;37751;52.408;12.536;2022-08-19T04:22:08;21.63;;;18.15;;
51664;SDS011;37751;52.408;12.536;2022-08-19T04:24:37;27.67;;;20.70;;
51664;SDS011;37751;52.408;12.536;2022-08-19T04:27:04;23.05;;;20.67;;
51664;SDS011;37751;52.408;12.536;2022-08-19T04:29:32;23.77;;;21.20;;
51664;SDS011;37751;52.408;12.536;2022-08-19T04:31:59;27.60;;;23.88;;
51664;SDS011;37751;52.408;12.536;2022-08-19T04:34:35;27.63;;;22.95;;
51664;SDS011;37751;52.408;12.536;2022-08-19T04:37:22;27.40;;;22.77;;
51664;SDS011;37751;52.408;12.536;2022-08-19T04:39:50;27.48;;;22.48;;
51664;SDS011;37751;52.408;12.536;2022-08-19T04:42:35;27.70;;;23.50;;
51664;SDS011;37751;52.408;12.536;2022-08-19T04:45:10;25.85;;;22.92;;
51664;SDS011;37751;52.408;12.536;2022-08-19T04:47:40;27.17;;;22.17;;
51664;SDS011;37751;52.408;12.536;2022-08-19T04:50:13;34.47;;;24.25;;
51664;SDS011;37751;52.408;12.536;2022-08-19T04:52:41;33.33;;;23.73;;
51664;SDS011;37751;52.408;12.536;2022-08-19T04:55:09;24.88;;;21.17;;
51664;SDS011;37751;52.408;12.536;2022-08-19T04:57:37;30.40;;;22.60;;
51664;SDS011;37751;52.408;12.536;2022-08-19T05:00:07;23.02;;;20.55;;
51664;SDS011;37751;52.408;12.536;2022-08-19T05:02:35;22.45;;;20.05;;
51664;SDS011;37751;52.408;12.536;2022-08-19T05:05:02;23.92;;;20.35;;
51664;SDS011;37751;52.408;12.536;2022-08-19T05:07:29;27.33;;;21.75;;
51664;SDS011;37751;52.408;12.536;2022-08-19T05:09:56;22.83;;;20.25;;
51664;SDS011;37751;52.408;12.536;2022-08-19T05:12:24;28.88;;;22.13;;
51664;SDS011;37751;52.408;12.536;2022-08-19T05:14:54;24.73;;;21.80;;
51664;SDS011;37751;52.408;12.536;2022-08-19T05:17:24;27.55;;;23.00;;
51664;SDS011;37751;52.408;12.536;2022-08-19T05:19:56;26.02;;;23.23;;
51664;SDS011;37751;52.408;12.536;2022-08-19T05:22:49;28.75;;;24.67;;
51664;SDS011;37751;52.408;12.536;2022-08-19T05:25:17;26.40;;;22.30;;
51664;SDS011;37751;52.408;12.536;2022-08-19T05:27:46;29.83;;;22.83;;
51664;SDS011;37751;52.408;12.536;2022-08-19T05:30:13;30.58;;;24.60;;
51664;SDS011;37751;52.408;12.536;2022-08-19T05:32:42;24.98;;;22.13;;
51664;SDS011;37751;52.408;12.536;2022-08-19T05:35:09;28.05;;;23.02;;
51664;SDS011;37751;52.408;12.536;2022-08-19T05:37:37;30.50;;;24.25;;
51664;SDS011;37751;52.408;12.536;2022-08-19T05:40:06;35.05;;;25.55;;
51664;SDS011;37751;52.408;12.536;2022-08-19T05:42:35;36.33;;;27.73;;
51664;SDS011;37751;52.408;12.536;2022-08-19T05:45:02;36.80;;;28.50;;
51664;SDS011;37751;52.408;12.536;2022-08-19T05:47:30;37.45;;;28.92;;
51664;SDS011;37751;52.408;12.536;2022-08-19T05:49:58;37.33;;;29.80;;
51664;SDS011;37751;52.408;12.536;2022-08-19T05:52:24;41.45;;;32.17;;
51664;SDS011;37751;52.408;12.536;2022-08-19T05:54:52;43.63;;;33.97;;
51664;SDS011;37751;52.408;12.536;2022-08-19T05:57:22;47.25;;;33.90;;
51664;SDS011;37751;52.408;12.536;2022-08-19T05:59:50;45.03;;;36.75;;
51664;SDS011;37751;52.408;12.536;2022-08-19T06:02:23;48.15;;;36.67;;
51664;SDS011;37751;52.408;12.536;2022-08-19T06:04:51;50.00;;;36.55;;
51664;SDS011;37751;52.408;12.536;2022-08-19T06:07:18;53.53;;;39.92;;
51664;SDS011;37751;52.408;12.536;2022-08-19T06:09:45;53.40;;;37.88;;
51664;SDS011;37751;52.408;12.536;2022-08-19T06:12:26;53.47;;;38.90;;
51664;SDS011;37751;52.408;12.536;2022-08-19T06:14:59;53.80;;;38.38;;
51664;SDS011;37751;52.408;12.536;2022-08-19T06:17:28;54.97;;;40.80;;
51664;SDS011;37751;52.408;12.536;2022-08-19T06:19:57;56.78;;;40.15;;
51664;SDS011;37751;52.408;12.536;2022-08-19T06:22:24;54.15;;;40.97;;
51664;SDS011;37751;52.408;12.536;2022-08-19T06:24:50;60.70;;;42.33;;
51664;SDS011;37751;52.408;12.536;2022-08-19T06:27:19;61.47;;;43.95;;
51664;SDS011;37751;52.408;12.536;2022-08-19T06:29:47;63.50;;;39.72;;
51664;SDS011;37751;52.408;12.536;2022-08-19T06:32:15;66.05;;;46.17;;
51664;SDS011;37751;52.408;12.536;2022-08-19T06:34:44;66.40;;;45.90;;
51664;SDS011;37751;52.408;12.536;2022-08-19T06:37:12;60.40;;;43.78;;
51664;SDS011;37751;52.408;12.536;2022-08-19T06:39:40;67.50;;;44.97;;
51664;SDS011;37751;52.408;12.536;2022-08-19T06:42:09;67.43;;;47.08;;
51664;SDS011;37751;52.408;12.536;2022-08-19T06:44:40;63.15;;;44.83;;
51664;SDS011;37751;52.408;12.536;2022-08-19T06:47:18;67.70;;;47.35;;
51664;SDS011;37751;52.408;12.536;2022-08-19T06:49:58;68.43;;;46.10;;
51664;SDS011;37751;52.408;12.536;2022-08-19T06:52:31;62.15;;;42.53;;
51664;SDS011;37751;52.408;12.536;2022-08-19T06:55:02;69.25;;;48.92;;
51664;SDS011;37751;52.408;12.536;2022-08-19T06:57:32;62.58;;;44.85;;
51664;SDS011;37751;52.408;12.536;2022-08-19T06:59:59;57.83;;;42.83;;
51664;SDS011;37751;52.408;12.536;2022-08-19T07:02:26;68.78;;;47.13;;
51664;SDS011;37751;52.408;12.536;2022-08-19T07:04:53;61.03;;;42.83;;
51664;SDS011;37751;52.408;12.536;2022-08-19T07:07:20;57.40;;;39.10;;
51664;SDS011;37751;52.408;12.536;2022-08-19T07:09:49;63.00;;;44.35;;
51664;SDS011;37751;52.408;12.536;2022-08-19T07:12:25;62.25;;;43.45;;
51664;SDS011;37751;52.408;12.536;2022-08-19T07:14:56;60.80;;;42.95;;
51664;SDS011;37751;52.408;12.536;2022-08-19T07:17:24;62.30;;;45.85;;
51664;SDS011;37751;52.408;12.536;2022-08-19T07:19:53;62.97;;;44.13;;
51664;SDS011;37751;52.408;12.536;2022-08-19T07:22:20;57.88;;;41.72;;
51664;SDS011;37751;52.408;12.536;2022-08-19T07:24:49;62.92;;;44.42;;
51664;SDS011;37751;52.408;12.536;2022-08-19T07:27:17;62.90;;;45.97;;
51664;SDS011;37751;52.408;12.536;2022-08-19T07:29:50;66.88;;;47.05;;
51664;SDS011;37751;52.408;12.536;2022-08-19T07:32:24;65.70;;;47.10;;
51664;SDS011;37751;52.408;12.536;2022-08-19T07:34:53;65.95;;;46.35;;
51664;SDS011;37751;52.408;12.536;2022-08-19T07:37:22;60.88;;;44.92;;
51664;SDS011;37751;52.408;12.536;2022-08-19T07:39:58;60.05;;;43.92;;
51664;SDS011;37751;52.408;12.536;2022-08-19T07:42:26;53.90;;;41.00;;
51664;SDS011;37751;52.408;12.536;2022-08-19T07:44:55;59.55;;;43.05;;
51664;SDS011;37751;52.408;12.536;2022-08-19T07:47:23;69.85;;;43.88;;
51664;SDS011;37751;52.408;12.536;2022-08-19T07:50:10;63.28;;;43.85;;
51664;SDS011;37751;52.408;12.536;2022-08-19T07:52:38;69.38;;;49.75;;
51664;SDS011;37751;52.408;12.536;2022-08-19T07:55:07;67.60;;;45.15;;
51664;SDS011;37751;52.408;12.536;2022-08-19T07:57:56;63.88;;;47.35;;
51664;SDS011;37751;52.408;12.536;2022-08-19T08:00:23;65.40;;;47.38;;
51664;SDS011;37751;52.408;12.536;2022-08-19T08:02:50;58.85;;;44.05;;
51664;SDS011;37751;52.408;12.536;2022-08-19T08:05:21;57.90;;;42.63;;
51664;SDS011;37751;52.408;12.536;2022-08-19T08:08:09;57.58;;;42.50;;
51664;SDS011;37751;52.408;12.536;2022-08-19T08:10:57;56.17;;;40.72;;
51664;SDS011;37751;52.408;12.536;2022-08-19T08:13:25;61.72;;;44.63;;
51664;SDS011;37751;52.408;12.536;2022-08-19T08:15:53;59.20;;;43.63;;
51664;SDS011;37751;52.408;12.536;2022-08-19T08:18:21;63.45;;;46.30;;
51664;SDS011;37751;52.408;12.536;2022-08-19T08:20:53;57.75;;;43.67;;
51664;SDS011;37751;52.408;12.536;2022-08-19T08:23:22;64.07;;;48.05;;
51664;SDS011;37751;52.408;12.536;2022-08-19T08:25:52;57.90;;;42.95;;
51664;SDS011;37751;52.408;12.536;2022-08-19T08:28:23;56.35;;;43.70;;
51664;SDS011;37751;52.408;12.536;2022-08-19T08:30:51;51.28;;;40.70;;
51664;SDS011;37751;52.408;12.536;2022-08-19T08:33:19;59.92;;;44.33;;
51664;SDS011;37751;52.408;12.536;2022-08-19T08:35:59;52.88;;;41.33;;
51664;SDS011;37751;52.408;12.536;2022-08-19T08:38:36;55.63;;;40.35;;
51664;SDS011;37751;52.408;12.536;2022-08-19T08:43:54;59.72;;;42.03;;
51664;SDS011;37751;52.408;12.536;2022-08-19T08:46:29;61.80;;;44.63;;
51664;SDS011;37751;52.408;12.536;2022-08-19T08:52:52;54.42;;;41.75;;
51664;SDS011;37751;52.408;12.536;2022-08-19T08:55:05;59.40;;;40.08;;
51664;SDS011;37751;52.408;12.536;2022-08-19T09:00:18;52.83;;;39.47;;
51664;SDS011;37751;52.408;12.536;2022-08-19T09:02:53;53.20;;;40.65;;
51664;SDS011;37751;52.408;12.536;2022-08-19T09:05:22;52.53;;;39.25;;
51664;SDS011;37751;52.408;12.536;2022-08-19T09:10:53;46.83;;;36.92;;
51664;SDS011;37751;52.408;12.536;2022-08-19T09:13:29;47.25;;;34.83;;
51664;SDS011;37751;52.408;12.536;2022-08-19T09:16:16;53.03;;;39.00;;
51664;SDS011;37751;52.408;12.536;2022-08-19T09:18:57;55.22;;;36.40;;
51664;SDS011;37751;52.408;12.536;2022-08-19T09:21:31;58.92;;;36.42;;
51664;SDS011;37751;52.408;12.536;2022-08-19T09:23:59;48.47;;;37.95;;
51664;SDS011;37751;52.408;12.536;2022-08-19T09:26:28;57.97;;;37.80;;
51664;SDS011;37751;52.408;12.536;2022-08-19T09:29:17;50.10;;;36.92;;
51664;SDS011;37751;52.408;12.536;2022-08-19T09:31:44;50.70;;;36.38;;
51664;SDS011;37751;52.408;12.536;2022-08-19T09:34:10;49.83;;;36.90;;
51664;SDS011;37751;52.408;12.536;2022-08-19T09:36:47;52.97;;;38.40;;
51664;SDS011;37751;52.408;12.536;2022-08-19T09:39:20;51.42;;;36.97;;
51664;SDS011;37751;52.408;12.536;2022-08-19T09:41:47;50.25;;;37.88;;
51664;SDS011;37751;52.408;12.536;2022-08-19T09:44:16;45.80;;;34.63;;
51664;SDS011;37751;52.408;12.536;2022-08-19T09:46:44;48.22;;;34.45;;
51664;SDS011;37751;52.408;12.536;2022-08-19T09:49:13;51.08;;;35.90;;
51664;SDS011;37751;52.408;12.536;2022-08-19T09:51:43;44.72;;;33.40;;
51664;SDS011;37751;52.408;12.536;2022-08-19T09:54:16;42.00;;;32.80;;
51664;SDS011;37751;52.408;12.536;2022-08-19T09:56:49;44.05;;;33.25;;
51664;SDS011;37751;52.408;12.536;2022-08-19T09:59:15;49.38;;;33.47;;
51664;SDS011;37751;52.408;12.536;2022-08-19T10:01:42;43.03;;;32.88;;
51664;SDS011;37751;52.408;12.536;2022-08-19T10:04:11;42.00;;;30.70;;
51664;SDS011;37751;52.408;12.536;2022-08-19T10:06:45;30.23;;;24.45;;
51664;SDS011;37751;52.408;12.536;2022-08-19T10:09:18;29.50;;;24.77;;
51664;SDS011;37751;52.408;12.536;2022-08-19T10:11:59;26.23;;;22.65;;
51664;SDS011;37751;52.408;12.536;2022-08-19T10:14:28;26.23;;;22.45;;
51664;SDS011;37751;52.408;12.536;2022-08-19T10:16:55;27.52;;;22.13;;
51664;SDS011;37751;52.408;12.536;2022-08-19T10:19:24;25.42;;;22.08;;
51664;SDS011;37751;52.408;12.536;2022-08-19T10:21:52;25.40;;;21.27;;
51664;SDS011;37751;52.408;12.536;2022-08-19T10:24:25;20.95;;;18.00;;
51664;SDS011;37751;52.408;12.536;2022-08-19T10:26:54;23.17;;;20.20;;
51664;SDS011;37751;52.408;12.536;2022-08-19T10:29:25;22.50;;;18.95;;
51664;SDS011;37751;52.408;12.536;2022-08-19T10:31:59;23.10;;;20.15;;
51664;SDS011;37751;52.408;12.536;2022-08-19T10:34:38;21.45;;;18.85;;
51664;SDS011;37751;52.408;12.536;2022-08-19T10:37:14;22.80;;;19.38;;
51664;SDS011;37751;52.408;12.536;2022-08-19T10:39:54;24.33;;;18.88;;
51664;SDS011;37751;52.408;12.536;2022-08-19T10:42:21;21.95;;;16.98;;
51664;SDS011;37751;52.408;12.536;2022-08-19T10:44:48;24.80;;;21.92;;
51664;SDS011;37751;52.408;12.536;2022-08-19T10:47:17;25.35;;;20.63;;
51664;SDS011;37751;52.408;12.536;2022-08-19T10:49:51;27.95;;;23.38;;
51664;SDS011;37751;52.408;12.536;2022-08-19T10:52:45;30.98;;;24.27;;
51664;SDS011;37751;52.408;12.536;2022-08-19T10:55:19;35.35;;;25.13;;
51664;SDS011;37751;52.408;12.536;2022-08-19T10:58:12;29.40;;;24.70;;
51664;SDS011;37751;52.408;12.536;2022-08-19T11:00:42;31.40;;;24.98;;
51664;SDS011;37751;52.408;12.536;2022-08-19T11:03:10;33.58;;;25.42;;
51664;SDS011;37751;52.408;12.536;2022-08-19T11:05:37;29.05;;;22.95;;
51664;SDS011;37751;52.408;12.536;2022-08-19T11:08:06;33.13;;;27.10;;
51664;SDS011;37751;52.408;12.536;2022-08-19T11:10:49;33.40;;;23.77;;
51664;SDS011;37751;52.408;12.536;2022-08-19T11:13:25;29.58;;;23.73;;
51664;SDS011;37751;52.408;12.536;2022-08-19T11:15:56;30.88;;;25.88;;
51664;SDS011;37751;52.408;12.536;2022-08-19T11:18:34;30.55;;;24.58;;
51664;SDS011;37751;52.408;12.536;2022-08-19T11:21:16;30.77;;;25.30;;
51664;SDS011;37751;52.408;12.536;2022-08-19T11:23:50;32.78;;;24.98;;
51664;SDS011;37751;52.408;12.536;2022-08-19T11:26:20;36.20;;;26.40;;
51664;SDS011;37751;52.408;12.536;2022-08-19T11:28:47;32.70;;;25.95;;
51664;SDS011;37751;52.408;12.536;2022-08-19T11:31:17;37.38;;;27.27;;
51664;SDS011;37751;52.408;12.536;2022-08-19T11:33:49;39.45;;;27.40;;
51664;SDS011;37751;52.408;12.536;2022-08-19T11:36:17;33.47;;;25.83;;
51664;SDS011;37751;52.408;12.536;2022-08-19T11:38:47;33.10;;;27.70;;
51664;SDS011;37751;52.408;12.536;2022-08-19T11:41:16;32.88;;;25.35;;
51664;SDS011;37751;52.408;12.536;2022-08-19T11:43:45;33.08;;;25.65;;
51664;SDS011;37751;52.408;12.536;2022-08-19T11:46:13;29.23;;;22.77;;
51664;SDS011;37751;52.408;12.536;2022-08-19T11:48:42;28.25;;;23.92;;
51664;SDS011;37751;52.408;12.536;2022-08-19T11:51:16;33.35;;;24.02;;
51664;SDS011;37751;52.408;12.536;2022-08-19T11:53:46;32.58;;;26.40;;
51664;SDS011;37751;52.408;12.536;2022-08-19T11:56:14;33.58;;;25.17;;
51664;SDS011;37751;52.408;12.536;2022-08-19T11:58:40;29.20;;;21.38;;
51664;SDS011;37751;52.408;12.536;2022-08-19T12:01:11;34.35;;;25.60;;
51664;SDS011;37751;52.408;12.536;2022-08-19T12:03:42;38.90;;;29.02;;
51664;SDS011;37751;52.408;12.536;2022-08-19T12:06:14;32.88;;;24.85;;
51664;SDS011;37751;52.408;12.536;2022-08-19T12:08:53;35.50;;;24.23;;
51664;SDS011;37751;52.408;12.536;2022-08-19T12:11:23;35.55;;;26.95;;
51664;SDS011;37751;52.408;12.536;2022-08-19T12:13:50;34.05;;;25.75;;
51664;SDS011;37751;52.408;12.536;2022-08-19T12:16:18;31.63;;;24.20;;
51664;SDS011;37751;52.408;12.536;2022-08-19T12:18:50;31.23;;;24.75;;
51664;SDS011;37751;52.408;12.536;2022-08-19T12:21:21;35.55;;;25.58;;
51664;SDS011;37751;52.408;12.536;2022-08-19T12:23:51;38.63;;;26.75;;
51664;SDS011;37751;52.408;12.536;2022-08-19T12:26:21;34.33;;;26.70;;
51664;SDS011;37751;52.408;12.536;2022-08-19T12:28:50;36.20;;;24.77;;
51664;SDS011;37751;52.408;12.536;2022-08-19T12:31:17;36.28;;;24.92;;
51664;SDS011;37751;52.408;12.536;2022-08-19T12:33:45;35.60;;;25.77;;
51664;SDS011;37751;52.408;12.536;2022-08-19T12:36:14;33.08;;;26.05;;
51664;SDS011;37751;52.408;12.536;2022-08-19T12:38:42;34.17;;;27.70;;
51664;SDS011;37751;52.408;12.536;2022-08-19T12:41:11;30.25;;;19.17;;
51664;SDS011;37751;52.408;12.536;2022-08-19T12:43:41;38.45;;;27.45;;
51664;SDS011;37751;52.408;12.536;2022-08-19T12:46:08;39.47;;;27.23;;
51664;SDS011;37751;52.408;12.536;2022-08-19T12:48:36;37.33;;;28.30;;
51664;SDS011;37751;52.408;12.536;2022-08-19T12:51:06;36.38;;;27.88;;
51664;SDS011;37751;52.408;12.536;2022-08-19T12:53:41;35.97;;;28.73;;
51664;SDS011;37751;52.408;12.536;2022-08-19T12:56:09;35.75;;;28.73;;
51664;SDS011;37751;52.408;12.536;2022-08-19T12:58:38;37.30;;;25.92;;
51664;SDS011;37751;52.408;12.536;2022-08-19T13:01:11;37.17;;;26.73;;
51664;SDS011;37751;52.408;12.536;2022-08-19T13:03:42;38.08;;;28.30;;
51664;SDS011;37751;52.408;12.536;2022-08-19T13:06:12;34.88;;;26.48;;
51664;SDS011;37751;52.408;12.536;2022-08-19T13:08:44;37.75;;;27.15;;
51664;SDS011;37751;52.408;12.536;2022-08-19T13:11:12;33.55;;;26.35;;
51664;SDS011;37751;52.408;12.536;2022-08-19T13:13:44;33.28;;;25.70;;
51664;SDS011;37751;52.408;12.536;2022-08-19T13:16:13;33.13;;;26.58;;
51664;SDS011;37751;52.408;12.536;2022-08-19T13:18:41;36.30;;;26.58;;
51664;SDS011;37751;52.408;12.536;2022-08-19T13:21:10;30.45;;;25.20;;
51664;SDS011;37751;52.408;12.536;2022-08-19T13:23:39;34.33;;;25.55;;
51664;SDS011;37751;52.408;12.536;2022-08-19T13:26:07;35.75;;;26.58;;
51664;SDS011;37751;52.408;12.536;2022-08-19T13:28:36;35.22;;;26.88;;
51664;SDS011;37751;52.408;12.536;2022-08-19T13:31:22;33.30;;;24.05;;
51664;SDS011;37751;52.408;12.536;2022-08-19T13:34:11;36.40;;;26.80;;
51664;SDS011;37751;52.408;12.536;2022-08-19T13:36:38;33.75;;;25.48;;
51664;SDS011;37751;52.408;12.536;2022-08-19T13:39:05;39.13;;;28.00;;
51664;SDS011;37751;52.408;12.536;2022-08-19T13:41:35;37.15;;;27.48;;
51664;SDS011;37751;52.408;12.536;2022-08-19T13:44:03;38.90;;;26.23;;
51664;SDS011;37751;52.408;12.536;2022-08-19T13:46:32;36.53;;;26.90;;
51664;SDS011;37751;52.408;12.536;2022-08-19T13:48:59;43.97;;;28.58;;
51664;SDS011;37751;52.408;12.536;2022-08-19T13:51:26;36.13;;;25.90;;
51664;SDS011;37751;52.408;12.536;2022-08-19T13:53:52;40.28;;;28.58;;
51664;SDS011;37751;52.408;12.536;2022-08-19T13:56:20;41.60;;;28.73;;
51664;SDS011;37751;52.408;12.536;2022-08-19T13:58:51;40.70;;;27.50;;
51664;SDS011;37751;52.408;12.536;2022-08-19T14:01:23;43.65;;;27.00;;
51664;SDS011;37751;52.408;12.536;2022-08-19T14:03:50;41.35;;;26.63;;
51664;SDS011;37751;52.408;12.536;2022-08-19T14:06:17;35.75;;;24.60;;
51664;SDS011;37751;52.408;12.536;2022-08-19T14:08:44;42.20;;;28.65;;
51664;SDS011;37751;52.408;12.536;2022-08-19T14:11:11;37.35;;;27.23;;
51664;SDS011;37751;52.408;12.536;2022-08-19T14:13:39;37.88;;;26.02;;
51664;SDS011;37751;52.408;12.536;2022-08-19T14:16:06;37.67;;;25.55;;
51664;SDS011;37751;52.408;12.536;2022-08-19T14:18:39;38.60;;;26.60;;
51664;SDS011;37751;52.408;12.536;2022-08-19T14:21:07;41.80;;;26.15;;
51664;SDS011;37751;52.408;12.536;2022-08-19T14:23:40;35.15;;;26.20;;
51664;SDS011;37751;52.408;12.536;2022-08-19T14:26:08;37.28;;;25.80;;
51664;SDS011;37751;52.408;12.536;2022-08-19T14:28:38;40.30;;;25.55;;
51664;SDS011;37751;52.408;12.536;2022-08-19T14:31:12;31.33;;;23.25;;
51664;SDS011;37751;52.408;12.536;2022-08-19T14:33:42;33.92;;;24.70;;
51664;SDS011;37751;52.408;12.536;2022-08-19T14:36:09;30.80;;;21.92;;
51664;SDS011;37751;52.408;12.536;2022-08-19T14:38:36;32.63;;;24.17;;
51664;SDS011;37751;52.408;12.536;2022-08-19T14:41:07;29.92;;;21.67;;
51664;SDS011;37751;52.408;12.536;2022-08-19T14:43:43;26.35;;;21.33;;
51664;SDS011;37751;52.408;12.536;2022-08-19T14:46:13;27.38;;;20.77;;